createdAt,value
2023-02-12T00:01:19.551Z,14.38
2023-02-12T00:03:46.760Z,13.80
2023-02-12T00:06:16.020Z,14.77
2023-02-12T00:08:43.368Z,13.73
2023-02-12T00:11:17.128Z,15.30
2023-02-12T00:13:44.374Z,14.55
2023-02-12T00:16:17.046Z,13.80
2023-02-12T00:18:45.353Z,14.80
2023-02-12T00:21:14.037Z,13.73
2023-02-12T00:23:41.249Z,15.90
2023-02-12T00:26:11.162Z,15.57
2023-02-12T00:28:41.544Z,14.05
2023-02-12T00:31:16.032Z,15.55
2023-02-12T00:33:43.448Z,15.70
2023-02-12T00:36:16.518Z,16.15
2023-02-12T00:38:44.865Z,19.05
2023-02-12T00:41:12.683Z,19.75
2023-02-12T00:43:40.110Z,17.85
2023-02-12T00:46:08.023Z,18.48
2023-02-12T00:48:36.552Z,19.02
2023-02-12T00:51:04.433Z,20.65
2023-02-12T00:53:32.724Z,20.38
2023-02-12T00:56:00.226Z,21.25
2023-02-12T00:58:27.771Z,21.95
2023-02-12T01:00:55.668Z,20.20
2023-02-12T01:03:23.960Z,22.45
2023-02-12T01:05:53.637Z,20.70
2023-02-12T01:08:21.754Z,21.55
2023-02-12T01:11:01.161Z,22.25
2023-02-12T01:13:30.581Z,21.45
2023-02-12T01:16:20.432Z,21.98
2023-02-12T01:18:48.289Z,23.00
2023-02-12T01:21:22.785Z,24.75
2023-02-12T01:23:50.541Z,22.35
2023-02-12T01:26:19.808Z,21.95
2023-02-12T01:28:54.775Z,23.48
2023-02-12T01:31:26.537Z,23.13
2023-02-12T01:33:56.648Z,22.10
2023-02-12T01:36:24.909Z,19.67
2023-02-12T01:38:52.165Z,20.77
2023-02-12T01:41:26.968Z,20.85
2023-02-12T01:44:15.568Z,20.60
2023-02-12T01:46:45.640Z,20.98
2023-02-12T01:49:42.889Z,19.15
2023-02-12T01:52:31.675Z,20.40
2023-02-12T01:55:04.331Z,20.48
2023-02-12T01:57:34.676Z,19.58
2023-02-12T02:00:07.827Z,19.50
2023-02-12T02:02:48.427Z,18.65
2023-02-12T02:05:23.238Z,20.15
2023-02-12T02:07:50.472Z,18.88
2023-02-12T02:10:17.452Z,19.60
2023-02-12T02:13:02.767Z,18.42
2023-02-12T02:15:31.981Z,16.65
2023-02-12T02:18:09.152Z,16.63
2023-02-12T02:21:25.145Z,17.35
2023-02-12T02:24:16.401Z,17.15
2023-02-12T02:27:07.341Z,15.75
2023-02-12T02:30:04.829Z,15.32
2023-02-12T02:32:42.437Z,16.50
2023-02-12T02:35:09.220Z,14.65
2023-02-12T02:38:22.371Z,15.18
2023-02-12T02:41:08.411Z,14.90
2023-02-12T02:43:49.961Z,14.48
2023-02-12T02:46:34.993Z,13.93
2023-02-12T02:49:37.772Z,13.70
2023-02-12T02:52:11.605Z,13.68
2023-02-12T02:54:50.704Z,13.20
2023-02-12T02:57:30.593Z,13.45
2023-02-12T03:00:18.342Z,12.57
2023-02-12T03:02:54.084Z,13.23
2023-02-12T03:05:26.632Z,13.70
2023-02-12T03:08:05.781Z,12.98
2023-02-12T03:10:40.833Z,13.32
2023-02-12T03:13:24.605Z,13.05
2023-02-12T03:15:58.930Z,12.57
2023-02-12T03:18:34.012Z,13.55
2023-02-12T03:21:10.736Z,13.07
2023-02-12T03:23:48.319Z,13.23
2023-02-12T03:26:25.696Z,13.52
2023-02-12T03:28:52.877Z,14.55
2023-02-12T03:31:43.788Z,14.20
2023-02-12T03:34:45.862Z,13.27
2023-02-12T03:37:18.428Z,13.48
2023-02-12T03:39:50.868Z,14.55
2023-02-12T03:42:56.523Z,14.05
2023-02-12T03:45:50.463Z,13.90
2023-02-12T03:48:29.559Z,14.18
2023-02-12T03:51:02.135Z,13.85
2023-02-12T03:53:30.605Z,14.77
2023-02-12T03:56:10.134Z,13.20
2023-02-12T03:58:38.379Z,12.48
2023-02-12T04:01:06.304Z,13.43
2023-02-12T04:03:33.967Z,14.40
2023-02-12T04:06:00.923Z,14.20
2023-02-12T04:08:28.832Z,13.18
2023-02-12T04:11:29.736Z,13.98
2023-02-12T04:14:47.638Z,14.15
2023-02-12T04:17:41.543Z,14.20
2023-02-12T04:20:52.625Z,13.45
2023-02-12T04:23:40.768Z,12.68
2023-02-12T04:26:50.846Z,13.82
2023-02-12T04:29:35.651Z,13.73
2023-02-12T04:32:24.942Z,13.70
2023-02-12T04:35:01.994Z,14.07
2023-02-12T04:37:39.019Z,13.30
2023-02-12T04:40:12.773Z,13.05
2023-02-12T04:42:45.317Z,14.35
2023-02-12T04:45:17.033Z,15.48
2023-02-12T04:47:43.945Z,13.73
2023-02-12T04:50:11.341Z,13.20
2023-02-12T04:52:38.261Z,12.48
2023-02-12T04:55:05.425Z,12.80
2023-02-12T04:57:32.347Z,12.80
2023-02-12T04:59:59.210Z,13.80
2023-02-12T05:02:26.061Z,12.88
2023-02-12T05:04:53.046Z,12.98
2023-02-12T05:07:20.073Z,13.07
2023-02-12T05:09:46.969Z,13.10
2023-02-12T05:12:13.840Z,12.77
2023-02-12T05:14:40.738Z,13.00
2023-02-12T05:17:07.919Z,12.75
2023-02-12T05:19:34.930Z,12.82
2023-02-12T05:22:01.858Z,14.00
2023-02-12T05:24:28.792Z,13.43
2023-02-12T05:26:55.789Z,14.18
2023-02-12T05:29:22.714Z,13.45
2023-02-12T05:31:49.671Z,14.25
2023-02-12T05:34:16.625Z,15.52
2023-02-12T05:36:44.014Z,14.43
2023-02-12T05:39:11.159Z,13.65
2023-02-12T05:41:38.081Z,13.20
2023-02-12T05:44:06.700Z,14.65
2023-02-12T05:46:34.202Z,13.27
2023-02-12T05:49:01.156Z,13.05
2023-02-12T05:51:28.817Z,14.00
2023-02-12T05:54:03.788Z,14.18
2023-02-12T05:56:37.106Z,13.98
2023-02-12T05:59:12.586Z,14.07
2023-02-12T06:01:42.394Z,14.43
2023-02-12T06:04:16.446Z,15.13
2023-02-12T06:06:44.094Z,14.35
2023-02-12T06:09:13.024Z,14.73
2023-02-12T06:11:40.389Z,15.55
2023-02-12T06:14:12.365Z,14.82
2023-02-12T06:16:39.681Z,13.35
2023-02-12T06:19:06.940Z,14.15
2023-02-12T06:21:34.604Z,14.77
2023-02-12T06:24:01.920Z,14.25
2023-02-12T06:26:28.897Z,14.65
2023-02-12T06:28:55.895Z,15.57
2023-02-12T06:31:30.063Z,12.50
2023-02-12T06:34:00.856Z,13.48
2023-02-12T06:36:28.157Z,13.48
2023-02-12T06:38:56.028Z,14.65
2023-02-12T06:41:24.028Z,14.70
2023-02-12T06:43:50.982Z,14.07
2023-02-12T06:46:18.133Z,14.07
2023-02-12T06:48:45.075Z,14.68
2023-02-12T06:51:21.749Z,14.50
2023-02-12T06:53:49.291Z,14.50
2023-02-12T06:56:16.556Z,13.80
2023-02-12T06:58:47.757Z,13.50
2023-02-12T07:01:19.342Z,13.65
2023-02-12T07:03:56.307Z,14.15
2023-02-12T07:06:24.793Z,12.52
2023-02-12T07:08:51.947Z,12.40
2023-02-12T07:11:22.601Z,13.75
2023-02-12T07:13:49.482Z,14.55
2023-02-12T07:16:17.153Z,14.50
2023-02-12T07:18:45.099Z,13.85
2023-02-12T07:21:14.342Z,13.00
2023-02-12T07:23:41.801Z,13.07
2023-02-12T07:26:12.938Z,15.00
2023-02-12T07:28:41.105Z,15.65
2023-02-12T07:31:14.019Z,18.67
2023-02-12T07:33:42.768Z,34.72
2023-02-12T07:36:18.425Z,21.80
2023-02-12T07:38:45.963Z,15.13
2023-02-12T07:41:26.284Z,22.92
2023-02-12T07:44:07.397Z,17.38
2023-02-12T07:46:46.294Z,14.93
2023-02-12T07:49:19.261Z,14.88
2023-02-12T07:51:47.067Z,14.35
2023-02-12T07:54:14.542Z,16.10
2023-02-12T07:56:43.572Z,17.42
2023-02-12T07:59:13.573Z,15.50
2023-02-12T08:01:48.731Z,17.27
2023-02-12T08:06:48.974Z,14.88
2023-02-12T08:09:21.530Z,15.93
2023-02-12T08:11:49.166Z,15.68
2023-02-12T08:14:18.839Z,15.02
2023-02-12T08:16:48.278Z,15.70
2023-02-12T08:19:19.738Z,14.68
2023-02-12T08:21:56.302Z,15.52
2023-02-12T08:26:51.595Z,14.50
2023-02-12T08:29:26.008Z,14.20
2023-02-12T08:32:14.058Z,15.50
2023-02-12T08:34:41.530Z,13.90
2023-02-12T08:37:08.732Z,14.00
2023-02-12T08:39:35.595Z,14.40
2023-02-12T08:42:02.810Z,16.83
2023-02-12T08:44:29.991Z,15.38
2023-02-12T08:46:56.977Z,15.63
2023-02-12T08:49:28.585Z,16.05
2023-02-12T08:51:58.216Z,15.63
2023-02-12T08:54:28.267Z,14.80
2023-02-12T08:57:01.385Z,14.90
2023-02-12T08:59:29.671Z,16.60
2023-02-12T09:01:56.614Z,16.35
2023-02-12T09:04:27.109Z,16.92
2023-02-12T09:06:54.904Z,16.67
2023-02-12T09:09:22.525Z,17.75
2023-02-12T09:11:50.273Z,18.15
2023-02-12T09:14:23.583Z,18.10
2023-02-12T09:16:53.096Z,18.63
2023-02-12T09:19:20.639Z,19.10
2023-02-12T09:21:56.470Z,16.52
2023-02-12T09:24:28.144Z,19.13
2023-02-12T09:26:55.923Z,25.63
2023-02-12T09:29:22.878Z,19.38
2023-02-12T09:31:49.974Z,18.17
2023-02-12T09:34:16.955Z,20.80
2023-02-12T09:36:43.994Z,15.85
2023-02-12T09:39:10.864Z,15.45
2023-02-12T09:41:55.552Z,15.27
2023-02-12T09:44:59.392Z,15.25
2023-02-12T09:47:33.439Z,13.70
2023-02-12T09:50:41.310Z,13.00
2023-02-12T09:53:14.898Z,13.45
2023-02-12T09:55:41.863Z,12.68
2023-02-12T09:58:46.699Z,13.35
2023-02-12T10:01:20.351Z,11.27
2023-02-12T10:03:50.498Z,12.18
2023-02-12T10:06:20.695Z,10.73
2023-02-12T10:09:21.017Z,11.90
2023-02-12T10:12:12.698Z,10.60
2023-02-12T10:15:06.440Z,10.30
2023-02-12T10:18:03.439Z,10.55
2023-02-12T10:20:57.712Z,10.38
2023-02-12T10:24:14.578Z,10.32
2023-02-12T10:26:51.256Z,10.05
2023-02-12T10:29:26.132Z,10.52
2023-02-12T10:32:06.037Z,11.02
2023-02-12T10:34:36.184Z,9.68
2023-02-12T10:38:03.127Z,9.23
2023-02-12T10:40:37.657Z,10.18
2023-02-12T10:43:04.825Z,9.82
2023-02-12T10:45:39.932Z,7.72
2023-02-12T10:48:38.867Z,8.93
2023-02-12T10:51:20.672Z,7.70
2023-02-12T10:53:48.533Z,7.28
2023-02-12T10:56:20.016Z,6.97
2023-02-12T10:59:01.223Z,8.48
2023-02-12T11:01:38.852Z,8.63
2023-02-12T11:04:26.143Z,6.30
2023-02-12T11:07:04.116Z,7.05
2023-02-12T11:09:40.189Z,6.80
2023-02-12T11:12:19.961Z,8.80
2023-02-12T11:14:54.544Z,7.95
2023-02-12T11:17:45.906Z,8.45
2023-02-12T11:20:18.650Z,7.32
2023-02-12T11:22:59.499Z,7.95
2023-02-12T11:25:30.711Z,8.13
2023-02-12T11:28:06.572Z,7.68
2023-02-12T11:30:34.230Z,7.97
2023-02-12T11:33:32.173Z,7.97
2023-02-12T11:36:26.003Z,8.63
2023-02-12T11:38:58.305Z,7.70
2023-02-12T11:41:41.607Z,7.68
2023-02-12T11:44:30.023Z,8.60
2023-02-12T11:47:08.784Z,8.55
2023-02-12T11:49:44.384Z,7.50
2023-02-12T11:52:24.060Z,8.60
2023-02-12T11:54:54.971Z,8.68
2023-02-12T11:57:46.863Z,9.68
2023-02-12T12:00:28.651Z,8.13
2023-02-12T12:03:06.788Z,7.43
2023-02-12T12:05:44.438Z,8.57
2023-02-12T12:08:27.688Z,9.10
2023-02-12T12:11:04.098Z,8.60
2023-02-12T12:13:39.065Z,8.63
2023-02-12T12:16:43.189Z,8.25
2023-02-12T12:19:40.596Z,7.57
2023-02-12T12:22:30.405Z,9.25
2023-02-12T12:25:45.185Z,11.63
2023-02-12T12:28:34.967Z,12.63
2023-02-12T12:31:15.277Z,8.95
2023-02-12T12:33:52.532Z,11.10
2023-02-12T12:36:40.672Z,12.55
2023-02-12T12:39:24.229Z,9.40
2023-02-12T12:42:12.658Z,9.95
2023-02-12T12:45:16.457Z,9.93
2023-02-12T12:48:31.101Z,10.20
2023-02-12T12:51:45.068Z,10.55
2023-02-12T12:54:31.713Z,11.70
2023-02-12T12:57:04.524Z,10.25
2023-02-12T13:00:00.310Z,10.77
2023-02-12T13:03:38.352Z,12.25
2023-02-12T13:06:23.193Z,10.93
2023-02-12T13:09:02.886Z,12.45
2023-02-12T13:11:42.167Z,12.45
2023-02-12T13:14:48.757Z,19.25
2023-02-12T13:17:41.083Z,21.15
2023-02-12T13:20:28.911Z,34.67
2023-02-12T13:23:34.654Z,34.85
2023-02-12T13:26:11.165Z,23.77
2023-02-12T13:28:44.625Z,19.52
2023-02-12T13:31:32.434Z,20.05
2023-02-12T13:34:07.044Z,14.00
2023-02-12T13:36:37.698Z,13.98
2023-02-12T13:39:15.364Z,17.58
2023-02-12T13:41:52.491Z,14.98
2023-02-12T13:44:42.251Z,13.65
2023-02-12T13:47:40.478Z,11.85
2023-02-12T13:51:01.083Z,17.02
2023-02-12T13:53:50.836Z,12.20
2023-02-12T13:56:33.860Z,12.38
2023-02-12T13:59:01.149Z,11.95
2023-02-12T14:01:49.302Z,10.93
2023-02-12T14:04:32.258Z,11.15
2023-02-12T14:07:12.798Z,10.07
2023-02-12T14:09:50.850Z,16.60
2023-02-12T14:12:40.550Z,12.02
2023-02-12T14:15:11.235Z,10.15
2023-02-12T14:17:37.962Z,12.38
2023-02-12T14:20:33.549Z,10.60
2023-02-12T14:23:22.490Z,11.00
2023-02-12T14:26:13.578Z,10.63
2023-02-12T14:28:47.375Z,9.73
2023-02-12T14:31:20.805Z,9.02
2023-02-12T14:33:51.553Z,14.02
2023-02-12T14:36:32.308Z,11.25
2023-02-12T14:39:25.288Z,10.73
2023-02-12T14:41:59.705Z,10.27
2023-02-12T14:44:37.977Z,11.63
2023-02-12T14:47:35.339Z,9.40
2023-02-12T14:50:22.987Z,9.30
2023-02-12T14:53:22.388Z,11.32
2023-02-12T14:55:51.031Z,13.23
2023-02-12T14:58:24.631Z,10.18
2023-02-12T15:00:56.278Z,10.65
2023-02-12T15:03:34.725Z,8.55
2023-02-12T15:06:14.866Z,8.43
2023-02-12T15:09:21.273Z,6.80
2023-02-12T15:12:10.947Z,7.80
2023-02-12T15:14:52.867Z,7.90
2023-02-12T15:17:28.103Z,8.10
2023-02-12T15:20:31.510Z,7.53
2023-02-12T15:22:58.549Z,7.63
2023-02-12T15:25:29.172Z,7.55
2023-02-12T15:28:18.121Z,8.10
2023-02-12T15:30:46.136Z,7.85
2023-02-12T15:33:26.777Z,7.50
2023-02-12T15:35:54.586Z,9.13
2023-02-12T15:38:33.655Z,8.82
2023-02-12T15:41:02.598Z,9.98
2023-02-12T15:43:39.514Z,10.02
2023-02-12T15:46:16.197Z,8.60
2023-02-12T15:48:43.702Z,9.30
2023-02-12T15:51:38.473Z,9.02
2023-02-12T15:54:07.417Z,8.95
2023-02-12T15:56:36.258Z,10.77
2023-02-12T16:04:08.193Z,10.52
2023-02-12T16:06:39.258Z,12.65
2023-02-12T16:09:33.801Z,10.25
2023-02-12T16:12:04.992Z,9.43
2023-02-12T16:14:49.798Z,10.93
2023-02-12T16:17:28.535Z,11.65
2023-02-12T16:20:15.333Z,11.65
2023-02-12T16:22:45.053Z,11.35
2023-02-12T16:25:31.853Z,11.80
2023-02-12T16:28:24.113Z,9.63
2023-02-12T16:30:51.890Z,9.57
2023-02-12T16:33:43.295Z,10.25
2023-02-12T16:36:25.015Z,11.02
2023-02-12T16:39:05.666Z,10.55
2023-02-12T16:41:56.526Z,11.02
2023-02-12T16:44:31.146Z,10.23
2023-02-12T16:47:01.253Z,11.63
2023-02-12T16:49:28.634Z,10.30
2023-02-12T16:52:41.737Z,9.80
2023-02-12T16:55:17.902Z,10.25
2023-02-12T16:57:45.176Z,9.50
2023-02-12T17:00:17.155Z,8.68
2023-02-12T17:02:44.602Z,9.85
2023-02-12T17:05:11.779Z,8.60
2023-02-12T17:07:38.750Z,8.40
2023-02-12T17:10:06.390Z,8.40
2023-02-12T17:12:33.525Z,7.82
2023-02-12T17:15:04.884Z,8.02
2023-02-12T17:17:31.780Z,8.68
2023-02-12T17:19:58.665Z,9.95
2023-02-12T17:22:26.933Z,10.90
2023-02-12T17:24:54.648Z,11.18
2023-02-12T17:27:21.585Z,10.23
2023-02-12T17:29:48.598Z,11.65
2023-02-12T17:32:16.312Z,10.32
2023-02-12T17:34:49.087Z,10.35
2023-02-12T17:37:18.065Z,10.00
2023-02-12T17:39:45.143Z,9.40
2023-02-12T17:42:12.169Z,9.65
2023-02-12T17:44:39.978Z,9.18
2023-02-12T17:47:07.188Z,9.82
2023-02-12T17:49:35.504Z,11.85
2023-02-12T17:52:03.443Z,10.38
2023-02-12T17:54:31.804Z,10.90
2023-02-12T17:56:58.962Z,9.90
2023-02-12T17:59:25.877Z,11.43
2023-02-12T18:01:52.925Z,10.75
2023-02-12T18:04:19.894Z,9.98
2023-02-12T18:06:47.027Z,9.23
2023-02-12T18:09:13.936Z,8.63
2023-02-12T18:11:42.197Z,9.13
2023-02-12T18:14:11.428Z,8.70
2023-02-12T18:16:38.446Z,8.57
2023-02-12T18:19:05.817Z,9.65
2023-02-12T18:21:34.916Z,11.60
2023-02-12T18:24:02.398Z,16.90
2023-02-12T18:26:29.349Z,19.25
2023-02-12T18:29:00.465Z,26.35
2023-02-12T18:31:28.458Z,26.27
2023-02-12T18:33:55.360Z,17.70
2023-02-12T18:36:22.856Z,16.73
2023-02-12T18:38:51.920Z,14.82
2023-02-12T18:41:25.847Z,13.48
2023-02-12T18:43:53.375Z,13.32
2023-02-12T18:46:24.034Z,11.75
2023-02-12T18:48:51.773Z,10.27
2023-02-12T18:51:22.646Z,9.23
2023-02-12T18:54:02.733Z,9.70
2023-02-12T18:56:33.566Z,8.30
2023-02-12T18:59:04.772Z,8.43
2023-02-12T19:01:33.388Z,8.15
2023-02-12T19:04:02.766Z,6.28
2023-02-12T19:06:31.591Z,6.55
2023-02-12T19:09:02.382Z,5.63
2023-02-12T19:11:30.881Z,5.68
2023-02-12T19:13:58.301Z,6.18
2023-02-12T19:16:26.152Z,5.93
2023-02-12T19:18:56.140Z,6.13
2023-02-12T19:21:26.295Z,6.15
2023-02-12T19:23:55.977Z,6.43
2023-02-12T19:26:23.952Z,8.82
2023-02-12T19:28:50.913Z,10.23
2023-02-12T19:31:23.495Z,8.70
2023-02-12T19:33:56.485Z,8.27
2023-02-12T19:36:24.953Z,6.70
2023-02-12T19:38:51.808Z,5.50
2023-02-12T19:41:23.717Z,5.70
2023-02-12T19:44:00.074Z,5.18
2023-02-12T19:46:31.174Z,5.07
2023-02-12T19:49:02.369Z,4.68
2023-02-12T19:51:30.664Z,4.80
2023-02-12T19:54:04.136Z,5.30
2023-02-12T19:56:31.497Z,5.13
2023-02-12T19:58:59.078Z,5.82
2023-02-12T20:01:27.330Z,5.18
2023-02-12T20:03:55.224Z,4.93
2023-02-12T20:06:36.265Z,5.30
2023-02-12T20:09:06.058Z,5.13
2023-02-12T20:11:37.619Z,5.20
2023-02-12T20:14:07.492Z,6.10
2023-02-12T20:16:38.138Z,6.38
2023-02-12T20:19:18.142Z,6.25
2023-02-12T20:21:46.237Z,5.57
2023-02-12T20:24:13.049Z,5.63
2023-02-12T20:26:40.274Z,6.30
2023-02-12T20:29:07.162Z,6.15
2023-02-12T20:31:37.793Z,5.78
2023-02-12T20:34:10.924Z,5.57
2023-02-12T20:36:40.188Z,5.68
2023-02-12T20:39:10.522Z,6.60
2023-02-12T20:41:37.662Z,6.85
2023-02-12T20:44:07.279Z,7.68
2023-02-12T20:46:37.839Z,7.88
2023-02-12T20:49:05.660Z,6.60
2023-02-12T20:51:32.976Z,5.30
2023-02-12T20:54:02.563Z,4.63
2023-02-12T20:56:35.865Z,5.88
2023-02-12T20:59:05.020Z,5.53
2023-02-12T21:01:37.156Z,5.82
2023-02-12T21:04:11.204Z,4.97
2023-02-12T21:06:40.235Z,5.18
2023-02-12T21:11:40.004Z,4.88
2023-02-12T21:14:21.379Z,4.35
2023-02-12T21:16:56.799Z,5.13
2023-02-12T21:19:25.025Z,5.72
2023-02-12T21:21:51.946Z,5.25
2023-02-12T21:24:23.613Z,5.60
2023-02-12T21:26:52.483Z,4.65
2023-02-12T21:29:20.328Z,5.00
2023-02-12T21:31:50.183Z,4.63
2023-02-12T21:34:21.218Z,4.35
2023-02-12T21:36:50.449Z,4.65
2023-02-12T21:39:27.769Z,4.03
2023-02-12T21:42:02.365Z,5.03
2023-02-12T21:44:32.475Z,5.80
2023-02-12T21:46:59.509Z,5.00
2023-02-12T21:49:27.872Z,6.00
2023-02-12T21:52:05.962Z,5.72
2023-02-12T21:54:32.986Z,4.68
2023-02-12T21:57:00.461Z,4.60
2023-02-12T21:59:31.470Z,4.10
2023-02-12T22:02:00.601Z,4.07
2023-02-12T22:04:27.989Z,4.32
2023-02-12T22:06:56.534Z,4.45
2023-02-12T22:09:23.906Z,4.15
2023-02-12T22:11:54.651Z,4.65
2023-02-12T22:14:22.225Z,5.07
2023-02-12T22:16:49.602Z,4.47
2023-02-12T22:19:16.605Z,4.53
2023-02-12T22:21:44.509Z,4.20
2023-02-12T22:24:14.727Z,5.03
2023-02-12T22:26:42.256Z,4.15
2023-02-12T22:29:12.604Z,4.78
2023-02-12T22:31:41.798Z,4.47
2023-02-12T22:34:14.620Z,4.63
2023-02-12T22:36:42.823Z,5.38
2023-02-12T22:39:12.969Z,5.25
2023-02-12T22:41:41.913Z,4.53
2023-02-12T22:44:11.242Z,4.63
2023-02-12T22:46:38.223Z,5.10
2023-02-12T22:49:05.558Z,5.15
2023-02-12T22:51:34.591Z,4.65
2023-02-12T22:56:28.717Z,4.03
2023-02-12T22:59:01.337Z,4.10
2023-02-12T23:01:29.517Z,4.13
2023-02-12T23:03:56.809Z,3.63
2023-02-12T23:06:28.022Z,3.72
2023-02-12T23:09:01.305Z,2.88
2023-02-12T23:11:30.453Z,3.60
2023-02-12T23:16:24.665Z,4.13
2023-02-12T23:19:00.675Z,4.07
2023-02-12T23:21:30.682Z,3.83
2023-02-12T23:24:01.327Z,3.45
2023-02-12T23:26:29.991Z,3.30
2023-02-12T23:28:57.296Z,3.45
2023-02-12T23:31:25.347Z,3.75
2023-02-12T23:33:52.348Z,3.72
2023-02-12T23:36:19.558Z,3.65
2023-02-12T23:38:46.476Z,3.47
2023-02-12T23:41:13.606Z,3.75
2023-02-12T23:43:40.611Z,3.28
2023-02-12T23:46:09.159Z,3.55
2023-02-12T23:48:36.145Z,3.97
2023-02-12T23:51:03.319Z,3.67
2023-02-12T23:53:30.245Z,3.50
2023-02-12T23:55:57.359Z,3.58
2023-02-12T23:58:24.297Z,3.97
